Time;durP1;ratioP1;P1;durP2;ratioP2;P2;SDS_P1;SDS_P2;PMS_P1;PMS_P2;Temp;Humidity;BMP_temperature;BMP_pressure;BME280_temperature;BME280_humidity;BME280_pressure;Samples;Min_cycle;Max_cycle;Signal;HPM_P1;HPM_P2
2023/07/19 00:01:45;;;;;;;6.85;2.33;;;;;;;;;;5101100;27;20531;-67
2023/07/19 00:04:12;;;;;;;8.85;2.63;;;;;;;;;;5104979;28;20055;-63
2023/07/19 00:06:38;;;;;;;5.20;2.25;;;;;;;;;;5104795;27;20083;-61
2023/07/19 00:09:05;;;;;;;10.20;2.53;;;;;;;;;;5098634;27;20152;-68
2023/07/19 00:11:31;;;;;;;7.93;2.30;;;;;;;;;;5092663;27;20048;-64
2023/07/19 00:13:58;;;;;;;3.25;1.90;;;;;;;;;;5088435;27;20117;-66
2023/07/19 00:16:25;;;;;;;3.88;2.22;;;;;;;;;;5103353;27;20506;-65
2023/07/19 00:18:51;;;;;;;2.78;1.80;;;;;;;;;;5101549;27;20163;-67
2023/07/19 00:21:25;;;;;;;8.35;2.40;;;;;;;;;;5100605;28;20059;-68
2023/07/19 00:23:52;;;;;;;4.65;3.03;;;;;;;;;;5103935;27;20543;-65
2023/07/19 00:26:18;;;;;;;5.07;2.25;;;;;;;;;;5103623;27;20048;-66
2023/07/19 00:28:45;;;;;;;4.95;2.22;;;;;;;;;;5102204;27;20110;-69
2023/07/19 00:31:11;;;;;;;6.22;2.25;;;;;;;;;;5104312;28;20083;-63
2023/07/19 00:33:38;;;;;;;3.97;2.60;;;;;;;;;;5101895;27;20052;-64
2023/07/19 00:36:05;;;;;;;6.82;2.85;;;;;;;;;;5093909;27;20053;-66
2023/07/19 00:38:31;;;;;;;7.75;2.70;;;;;;;;;;5100764;27;20129;-68
2023/07/19 00:40:58;;;;;;;10.25;3.38;;;;;;;;;;5092104;27;20138;-67
2023/07/19 00:43:24;;;;;;;4.35;2.42;;;;;;;;;;5103491;28;20462;-61
2023/07/19 00:45:54;;;;;;;7.10;2.45;;;;;;;;;;5104736;27;20063;-66
2023/07/19 00:48:21;;;;;;;6.47;2.80;;;;;;;;;;5113528;27;20167;-67
2023/07/19 00:50:48;;;;;;;5.10;2.33;;;;;;;;;;5098990;27;20506;-68
2023/07/19 00:53:14;;;;;;;5.38;2.63;;;;;;;;;;5103771;28;20468;-68
2023/07/19 00:55:41;;;;;;;5.43;2.47;;;;;;;;;;5091652;27;20053;-65
2023/07/19 00:58:08;;;;;;;5.80;2.22;;;;;;;;;;5103380;27;20059;-63
2023/07/19 01:00:34;;;;;;;8.23;2.72;;;;;;;;;;5103357;27;20056;-68
2023/07/19 01:03:01;;;;;;;4.45;2.45;;;;;;;;;;5096771;27;20049;-67
2023/07/19 01:05:27;;;;;;;5.90;2.88;;;;;;;;;;5108469;27;20055;-62
2023/07/19 01:07:54;;;;;;;3.97;2.28;;;;;;;;;;5090774;28;20464;-66
2023/07/19 01:10:20;;;;;;;4.15;2.33;;;;;;;;;;5104622;28;20082;-66
2023/07/19 01:13:06;;;;;;;3.35;2.20;;;;;;;;;;5096919;27;20582;-66
2023/07/19 01:15:33;;;;;;;7.60;2.40;;;;;;;;;;5100068;27;20129;-65
2023/07/19 01:17:59;;;;;;;4.78;2.50;;;;;;;;;;5095852;28;20056;-64
2023/07/19 01:20:26;;;;;;;6.55;2.17;;;;;;;;;;5093959;27;20109;-68
2023/07/19 01:22:53;;;;;;;6.75;2.17;;;;;;;;;;5099547;27;20735;-67
2023/07/19 01:25:20;;;;;;;6.50;1.88;;;;;;;;;;5112681;27;20052;-68
2023/07/19 01:27:46;;;;;;;5.90;2.35;;;;;;;;;;5100325;28;20086;-65
2023/07/19 01:30:13;;;;;;;7.18;2.58;;;;;;;;;;5103968;28;20101;-67
2023/07/19 01:32:40;;;;;;;4.35;2.17;;;;;;;;;;5098813;27;20052;-64
2023/07/19 01:35:06;;;;;;;4.70;2.13;;;;;;;;;;5116973;27;20048;-68
2023/07/19 01:37:33;;;;;;;4.00;2.20;;;;;;;;;;5113741;27;20507;-66
2023/07/19 01:40:00;;;;;;;3.65;2.15;;;;;;;;;;5094476;28;20558;-67
2023/07/19 01:42:26;;;;;;;2.72;1.80;;;;;;;;;;5100382;27;20507;-68
2023/07/19 01:44:57;;;;;;;4.22;2.20;;;;;;;;;;5119740;27;20052;-68
2023/07/19 01:47:23;;;;;;;4.32;2.35;;;;;;;;;;5104587;27;20143;-66
2023/07/19 01:49:50;;;;;;;3.22;2.10;;;;;;;;;;5103478;27;20051;-64
2023/07/19 01:52:16;;;;;;;5.53;2.65;;;;;;;;;;5101055;27;20086;-64
2023/07/19 01:54:43;;;;;;;5.40;2.70;;;;;;;;;;5102438;27;20052;-68
2023/07/19 01:57:09;;;;;;;6.93;2.85;;;;;;;;;;5103281;28;20576;-65
2023/07/19 01:59:36;;;;;;;2.33;2.13;;;;;;;;;;5098034;27;20589;-65
2023/07/19 02:02:03;;;;;;;7.07;3.25;;;;;;;;;;5093598;27;20595;-64
2023/07/19 02:04:30;;;;;;;3.10;2.25;;;;;;;;;;5099635;27;20057;-68
2023/07/19 02:06:57;;;;;;;5.88;2.40;;;;;;;;;;5090856;27;20154;-68
2023/07/19 02:09:23;;;;;;;3.83;2.50;;;;;;;;;;5086718;27;20079;-67
2023/07/19 02:11:49;;;;;;;7.53;2.70;;;;;;;;;;5084316;28;20052;-64
2023/07/19 02:14:17;;;;;;;3.47;2.28;;;;;;;;;;5092317;27;20048;-68
2023/07/19 02:16:44;;;;;;;2.75;2.03;;;;;;;;;;5101738;28;20055;-67
2023/07/19 02:19:10;;;;;;;2.40;2.20;;;;;;;;;;5102372;27;20503;-68
2023/07/19 02:21:36;;;;;;;3.83;2.53;;;;;;;;;;5101828;28;20576;-64
2023/07/19 02:24:03;;;;;;;3.00;2.58;;;;;;;;;;5110627;27;20130;-66
2023/07/19 02:26:29;;;;;;;2.85;2.38;;;;;;;;;;5099436;27;20056;-65
2023/07/19 02:28:57;;;;;;;4.95;2.55;;;;;;;;;;5094928;27;20083;-67
2023/07/19 02:31:23;;;;;;;4.47;2.97;;;;;;;;;;5102587;28;20120;-65
2023/07/19 02:33:50;;;;;;;3.95;2.40;;;;;;;;;;5107584;27;20051;-66
2023/07/19 02:36:16;;;;;;;7.90;2.90;;;;;;;;;;5107194;27;20063;-68
2023/07/19 02:38:44;;;;;;;4.60;2.58;;;;;;;;;;5098871;27;20150;-63
2023/07/19 02:41:10;;;;;;;4.95;2.60;;;;;;;;;;5101954;27;20075;-65
2023/07/19 02:43:36;;;;;;;7.75;2.58;;;;;;;;;;5121106;27;20425;-66
2023/07/19 02:46:03;;;;;;;4.47;2.30;;;;;;;;;;5102607;27;20529;-62
2023/07/19 02:48:29;;;;;;;4.53;2.40;;;;;;;;;;5100664;27;20056;-66
2023/07/19 02:50:57;;;;;;;3.67;2.40;;;;;;;;;;5104125;27;20499;-68
2023/07/19 02:53:23;;;;;;;4.57;2.70;;;;;;;;;;5106498;27;20059;-63
2023/07/19 02:55:50;;;;;;;4.28;2.50;;;;;;;;;;5105053;27;20048;-68
2023/07/19 02:58:16;;;;;;;3.58;2.47;;;;;;;;;;5103973;27;20799;-68
2023/07/19 03:00:43;;;;;;;5.53;2.35;;;;;;;;;;5104924;28;20052;-65
2023/07/19 03:03:10;;;;;;;7.93;2.72;;;;;;;;;;5100604;27;20965;-66
2023/07/19 03:05:40;;;;;;;6.50;2.88;;;;;;;;;;5089831;27;20057;-68
2023/07/19 03:08:06;;;;;;;7.82;2.58;;;;;;;;;;5101613;28;20134;-68
2023/07/19 03:10:33;;;;;;;4.90;3.03;;;;;;;;;;5105434;28;20052;-66
2023/07/19 03:12:59;;;;;;;3.60;2.45;;;;;;;;;;5105948;27;20052;-66
2023/07/19 03:15:27;;;;;;;3.55;2.70;;;;;;;;;;5112180;27;20044;-67
2023/07/19 03:17:53;;;;;;;6.38;3.00;;;;;;;;;;5106173;28;20091;-68
2023/07/19 03:20:20;;;;;;;8.75;3.75;;;;;;;;;;5088540;28;20044;-62
2023/07/19 03:22:46;;;;;;;4.72;2.83;;;;;;;;;;5086783;28;20048;-64
2023/07/19 03:25:12;;;;;;;6.55;3.00;;;;;;;;;;5090028;27;20114;-67
2023/07/19 03:27:39;;;;;;;4.00;2.67;;;;;;;;;;5087073;28;20136;-64
2023/07/19 03:30:06;;;;;;;3.92;2.95;;;;;;;;;;5104272;27;20147;-65
2023/07/19 03:32:33;;;;;;;5.18;3.42;;;;;;;;;;5105963;27;20052;-63
2023/07/19 03:34:59;;;;;;;5.68;3.05;;;;;;;;;;5112972;27;20499;-67
2023/07/19 03:37:26;;;;;;;5.55;3.03;;;;;;;;;;5105946;27;20059;-68
2023/07/19 03:39:53;;;;;;;8.30;3.03;;;;;;;;;;5104978;27;20147;-63
2023/07/19 03:42:19;;;;;;;5.60;3.15;;;;;;;;;;5081973;28;20063;-63
2023/07/19 03:44:46;;;;;;;6.28;3.35;;;;;;;;;;5109055;27;20057;-65
2023/07/19 03:47:12;;;;;;;6.85;3.30;;;;;;;;;;5101316;28;20049;-68
2023/07/19 03:49:39;;;;;;;4.65;2.92;;;;;;;;;;5096955;27;20064;-61
2023/07/19 03:52:05;;;;;;;6.20;3.30;;;;;;;;;;5088766;27;20083;-68
2023/07/19 03:54:32;;;;;;;4.93;3.60;;;;;;;;;;5113080;27;20052;-67
2023/07/19 03:56:58;;;;;;;8.02;3.70;;;;;;;;;;5099421;27;20130;-65
2023/07/19 03:59:25;;;;;;;7.25;3.22;;;;;;;;;;5096247;28;20537;-66
2023/07/19 04:01:51;;;;;;;8.55;3.47;;;;;;;;;;5103628;27;20080;-66
2023/07/19 04:04:18;;;;;;;7.28;3.50;;;;;;;;;;5108929;27;20056;-67
2023/07/19 04:06:44;;;;;;;7.82;3.70;;;;;;;;;;5090997;27;20052;-65
2023/07/19 04:09:11;;;;;;;5.88;3.53;;;;;;;;;;5100282;28;20052;-67
2023/07/19 04:11:37;;;;;;;5.50;3.70;;;;;;;;;;5120288;27;20062;-65
2023/07/19 04:14:04;;;;;;;4.80;3.15;;;;;;;;;;5102887;27;20044;-64
2023/07/19 04:16:30;;;;;;;8.10;3.65;;;;;;;;;;5103456;27;20468;-66
2023/07/19 04:18:57;;;;;;;7.18;3.70;;;;;;;;;;5104474;28;20055;-68
2023/07/19 04:21:23;;;;;;;7.78;3.35;;;;;;;;;;5085609;28;20145;-66
2023/07/19 04:23:50;;;;;;;9.35;3.13;;;;;;;;;;5103043;27;20052;-64
2023/07/19 04:26:16;;;;;;;5.53;3.88;;;;;;;;;;5089222;28;20477;-67
2023/07/19 04:28:43;;;;;;;5.35;3.35;;;;;;;;;;5100900;27;20129;-68
2023/07/19 04:31:09;;;;;;;6.25;3.70;;;;;;;;;;5099603;27;20053;-64
2023/07/19 04:33:36;;;;;;;8.68;3.70;;;;;;;;;;5092764;28;20067;-68
2023/07/19 04:36:10;;;;;;;8.05;4.13;;;;;;;;;;5077094;28;20056;-67
2023/07/19 04:38:37;;;;;;;8.20;3.40;;;;;;;;;;5119745;27;20056;-67
2023/07/19 04:41:04;;;;;;;7.72;4.03;;;;;;;;;;5103102;27;20050;-62
2023/07/19 04:43:31;;;;;;;8.18;3.80;;;;;;;;;;5104149;28;20109;-67
2023/07/19 04:45:57;;;;;;;5.53;3.65;;;;;;;;;;5094620;27;20125;-67
2023/07/19 04:48:24;;;;;;;11.25;3.95;;;;;;;;;;5100084;27;20105;-64
2023/07/19 04:50:56;;;;;;;8.18;4.10;;;;;;;;;;5102282;27;20465;-68
2023/07/19 04:53:24;;;;;;;4.72;3.63;;;;;;;;;;5105007;27;20643;-67
2023/07/19 04:55:52;;;;;;;7.05;4.05;;;;;;;;;;5081074;28;20059;-69
2023/07/19 04:58:18;;;;;;;8.85;3.40;;;;;;;;;;5084346;28;20393;-68
2023/07/19 05:00:45;;;;;;;8.07;3.28;;;;;;;;;;5084044;28;20053;-68
2023/07/19 05:03:11;;;;;;;7.35;3.97;;;;;;;;;;5084433;28;20088;-60
2023/07/19 05:05:39;;;;;;;6.78;3.63;;;;;;;;;;5105964;27;20056;-68
2023/07/19 05:08:06;;;;;;;7.28;4.03;;;;;;;;;;5100222;27;20442;-68
2023/07/19 05:10:36;;;;;;;8.82;4.13;;;;;;;;;;5103405;27;20056;-68
2023/07/19 05:13:04;;;;;;;7.97;3.67;;;;;;;;;;5097826;28;20131;-62
2023/07/19 05:15:31;;;;;;;8.30;3.63;;;;;;;;;;5097228;27;20122;-67
2023/07/19 05:18:00;;;;;;;6.75;3.50;;;;;;;;;;5101556;27;20056;-68
2023/07/19 05:20:27;;;;;;;8.43;4.10;;;;;;;;;;5099857;28;20131;-63
2023/07/19 05:22:55;;;;;;;10.90;5.03;;;;;;;;;;5087113;28;20134;-68
2023/07/19 05:25:22;;;;;;;9.40;4.18;;;;;;;;;;5100109;27;20131;-66
2023/07/19 05:27:48;;;;;;;8.02;4.50;;;;;;;;;;5097350;27;20488;-63
2023/07/19 05:30:15;;;;;;;6.68;3.80;;;;;;;;;;5084704;27;20049;-67
2023/07/19 05:32:41;;;;;;;8.18;4.22;;;;;;;;;;5096276;27;20603;-67
2023/07/19 05:35:08;;;;;;;6.88;4.45;;;;;;;;;;5099870;27;20163;-64
2023/07/19 05:37:34;;;;;;;9.57;4.00;;;;;;;;;;5084279;28;20053;-67
2023/07/19 05:40:01;;;;;;;8.35;3.83;;;;;;;;;;5083635;28;20052;-68
2023/07/19 05:42:27;;;;;;;5.65;4.03;;;;;;;;;;5094375;27;20098;-66
2023/07/19 05:44:53;;;;;;;8.75;3.80;;;;;;;;;;5100247;27;20175;-68
2023/07/19 05:47:20;;;;;;;8.02;4.63;;;;;;;;;;5093282;27;20114;-66
2023/07/19 05:49:46;;;;;;;8.32;3.38;;;;;;;;;;5100724;27;20522;-66
2023/07/19 05:52:13;;;;;;;8.98;4.15;;;;;;;;;;5088675;27;20102;-67
2023/07/19 05:54:39;;;;;;;5.25;3.70;;;;;;;;;;5094979;27;20441;-64
2023/07/19 05:57:05;;;;;;;7.65;3.25;;;;;;;;;;5093543;27;20081;-67
2023/07/19 05:59:32;;;;;;;7.80;3.75;;;;;;;;;;5100387;27;20075;-67
2023/07/19 06:01:59;;;;;;;9.80;3.78;;;;;;;;;;5103952;27;20108;-67
2023/07/19 06:04:26;;;;;;;6.95;4.38;;;;;;;;;;5101233;27;20075;-62
2023/07/19 06:06:53;;;;;;;6.35;3.47;;;;;;;;;;5094605;27;20052;-66
2023/07/19 06:09:19;;;;;;;8.45;3.72;;;;;;;;;;5095296;27;20710;-63
2023/07/19 06:11:45;;;;;;;4.82;3.08;;;;;;;;;;5094490;27;20783;-67
2023/07/19 06:14:12;;;;;;;7.97;3.15;;;;;;;;;;5099108;27;20138;-66
2023/07/19 06:16:39;;;;;;;6.32;3.10;;;;;;;;;;5102338;27;20052;-64
2023/07/19 06:19:06;;;;;;;5.65;3.10;;;;;;;;;;5103026;27;20149;-62
2023/07/19 06:21:32;;;;;;;9.05;3.08;;;;;;;;;;5101941;27;20109;-64
2023/07/19 06:23:58;;;;;;;3.85;2.45;;;;;;;;;;5085778;28;20198;-67
2023/07/19 06:26:25;;;;;;;6.97;2.38;;;;;;;;;;5104462;27;20063;-63
2023/07/19 06:28:51;;;;;;;5.88;2.60;;;;;;;;;;5119405;27;20069;-67
2023/07/19 06:31:18;;;;;;;4.75;2.45;;;;;;;;;;5094222;27;20686;-66
2023/07/19 06:33:45;;;;;;;7.00;2.72;;;;;;;;;;5085549;27;20052;-67
2023/07/19 06:36:11;;;;;;;6.32;3.08;;;;;;;;;;5079765;27;20510;-65
2023/07/19 06:38:38;;;;;;;6.93;2.45;;;;;;;;;;5100399;27;20058;-65
2023/07/19 06:41:04;;;;;;;4.30;1.60;;;;;;;;;;5102753;27;20087;-67
2023/07/19 06:43:31;;;;;;;3.65;1.60;;;;;;;;;;5102389;28;20048;-60
2023/07/19 06:45:57;;;;;;;7.30;2.33;;;;;;;;;;5103036;28;20132;-66
2023/07/19 06:48:24;;;;;;;3.47;1.67;;;;;;;;;;5103155;27;20125;-66
2023/07/19 06:50:50;;;;;;;4.07;1.92;;;;;;;;;;5116112;27;20052;-65
2023/07/19 06:53:17;;;;;;;1.77;1.50;;;;;;;;;;5102235;28;20048;-64
2023/07/19 06:55:43;;;;;;;7.75;1.52;;;;;;;;;;5103473;27;20530;-67
2023/07/19 06:58:10;;;;;;;5.95;1.80;;;;;;;;;;5099289;27;20097;-65
2023/07/19 07:00:36;;;;;;;5.07;2.00;;;;;;;;;;5102583;27;20502;-62
2023/07/19 07:03:03;;;;;;;2.75;1.77;;;;;;;;;;5103304;27;20052;-61
2023/07/19 07:05:30;;;;;;;3.20;1.58;;;;;;;;;;5103022;27;20047;-66
2023/07/19 07:07:57;;;;;;;1.92;1.42;;;;;;;;;;5101459;27;20056;-68
2023/07/19 07:10:23;;;;;;;9.85;1.70;;;;;;;;;;5084565;28;20105;-68
2023/07/19 07:12:50;;;;;;;5.93;1.38;;;;;;;;;;5101914;27;20079;-61
2023/07/19 07:15:16;;;;;;;3.28;1.30;;;;;;;;;;5101804;28;20569;-66
2023/07/19 07:17:44;;;;;;;2.03;1.20;;;;;;;;;;5084746;27;20576;-64
2023/07/19 07:20:10;;;;;;;4.65;1.55;;;;;;;;;;5090901;27;20121;-64
2023/07/19 07:22:37;;;;;;;2.72;1.13;;;;;;;;;;5099919;27;20101;-61
2023/07/19 07:25:04;;;;;;;6.97;1.80;;;;;;;;;;5098182;27;20076;-62
2023/07/19 07:27:31;;;;;;;6.97;1.45;;;;;;;;;;5101542;27;20607;-68
2023/07/19 07:29:58;;;;;;;3.42;1.42;;;;;;;;;;5113561;27;20563;-64
2023/07/19 07:32:24;;;;;;;2.70;1.48;;;;;;;;;;5104504;27;20562;-68
2023/07/19 07:34:51;;;;;;;4.45;1.30;;;;;;;;;;5101282;27;20085;-63
2023/07/19 07:37:17;;;;;;;5.82;1.65;;;;;;;;;;5089865;27;20126;-66
2023/07/19 07:39:44;;;;;;;5.28;2.05;;;;;;;;;;5090956;27;20601;-66
2023/07/19 07:42:10;;;;;;;3.13;1.33;;;;;;;;;;5097208;27;20064;-65
2023/07/19 07:44:37;;;;;;;6.15;1.60;;;;;;;;;;5132005;27;20056;-69
2023/07/19 07:47:04;;;;;;;2.75;1.30;;;;;;;;;;5090848;28;20513;-64
2023/07/19 07:49:31;;;;;;;2.17;1.33;;;;;;;;;;5091678;27;20063;-66
2023/07/19 07:51:57;;;;;;;3.88;1.67;;;;;;;;;;5103194;27;20442;-67
2023/07/19 07:54:24;;;;;;;3.45;1.50;;;;;;;;;;5090797;27;20048;-63
2023/07/19 07:56:50;;;;;;;2.50;1.27;;;;;;;;;;5105937;28;20088;-67
2023/07/19 07:59:16;;;;;;;4.30;1.45;;;;;;;;;;5105269;28;20048;-67
2023/07/19 08:01:43;;;;;;;2.70;1.25;;;;;;;;;;5105247;28;20116;-62
2023/07/19 08:04:11;;;;;;;7.85;1.83;;;;;;;;;;5086369;28;20059;-64
2023/07/19 08:06:38;;;;;;;4.20;1.63;;;;;;;;;;5104760;27;20499;-62
2023/07/19 08:09:05;;;;;;;7.68;1.88;;;;;;;;;;5105047;27;20056;-62
2023/07/19 08:11:34;;;;;;;3.10;1.50;;;;;;;;;;5104447;28;20129;-67
2023/07/19 08:14:00;;;;;;;2.95;1.45;;;;;;;;;;5098870;27;20048;-63
2023/07/19 08:16:27;;;;;;;2.15;1.58;;;;;;;;;;5091889;27;20052;-65
2023/07/19 08:18:54;;;;;;;5.65;1.70;;;;;;;;;;5098313;27;20052;-67
2023/07/19 08:21:21;;;;;;;5.57;2.10;;;;;;;;;;5104829;27;20060;-67
2023/07/19 08:24:02;;;;;;;4.43;1.65;;;;;;;;;;5089758;28;20053;-68
2023/07/19 08:26:29;;;;;;;1.88;1.60;;;;;;;;;;5103275;27;20457;-65
2023/07/19 08:28:55;;;;;;;2.80;1.42;;;;;;;;;;5102684;27;20271;-67
2023/07/19 08:31:23;;;;;;;5.90;1.75;;;;;;;;;;5103201;27;20101;-67
2023/07/19 08:33:51;;;;;;;2.03;1.48;;;;;;;;;;5104537;28;20466;-65
2023/07/19 08:36:18;;;;;;;4.32;1.70;;;;;;;;;;5105109;28;20409;-68
2023/07/19 08:38:44;;;;;;;1.90;1.50;;;;;;;;;;5096096;27;20792;-67
2023/07/19 08:41:11;;;;;;;3.10;1.60;;;;;;;;;;5104199;28;20512;-63
2023/07/19 08:43:38;;;;;;;2.95;1.48;;;;;;;;;;5087187;28;20678;-62
2023/07/19 08:46:04;;;;;;;3.25;1.90;;;;;;;;;;5100831;27;20147;-66
2023/07/19 08:48:32;;;;;;;5.80;1.73;;;;;;;;;;5100205;27;20053;-67
2023/07/19 08:51:00;;;;;;;3.70;1.90;;;;;;;;;;5086057;28;20059;-66
2023/07/19 08:53:26;;;;;;;5.70;2.13;;;;;;;;;;5084179;28;20052;-67
2023/07/19 08:55:53;;;;;;;5.20;1.95;;;;;;;;;;5096925;27;20601;-68
2023/07/19 08:58:20;;;;;;;3.95;1.85;;;;;;;;;;5102430;27;20091;-65
2023/07/19 09:00:48;;;;;;;5.53;2.10;;;;;;;;;;5092423;28;20059;-63
2023/07/19 09:03:15;;;;;;;6.15;2.13;;;;;;;;;;5112972;27;20087;-63
2023/07/19 09:05:41;;;;;;;2.63;1.83;;;;;;;;;;5116413;27;20101;-62
2023/07/19 09:08:11;;;;;;;4.70;2.53;;;;;;;;;;5095203;28;20083;-67
2023/07/19 09:10:37;;;;;;;4.75;1.60;;;;;;;;;;5095253;28;20070;-65
2023/07/19 09:13:07;;;;;;;3.92;2.03;;;;;;;;;;5103035;27;20458;-64
2023/07/19 09:15:35;;;;;;;4.35;2.00;;;;;;;;;;5099043;27;20086;-64
2023/07/19 09:18:06;;;;;;;5.40;2.17;;;;;;;;;;5103708;27;20052;-67
2023/07/19 09:20:35;;;;;;;4.63;1.67;;;;;;;;;;5105272;27;20084;-64
2023/07/19 09:23:03;;;;;;;4.20;1.73;;;;;;;;;;5107170;27;20143;-65
2023/07/19 09:25:29;;;;;;;2.08;1.30;;;;;;;;;;5098325;27;20040;-64
2023/07/19 09:27:56;;;;;;;5.97;2.00;;;;;;;;;;5095410;27;20100;-67
2023/07/19 09:30:22;;;;;;;2.25;1.80;;;;;;;;;;5090056;27;20250;-67
2023/07/19 09:32:59;;;;;;;4.05;1.58;;;;;;;;;;5124045;27;20052;-64
2023/07/19 09:35:27;;;;;;;3.28;1.50;;;;;;;;;;5098235;27;20465;-66
2023/07/19 09:37:54;;;;;;;5.60;1.73;;;;;;;;;;5103611;27;20052;-66
2023/07/19 09:40:21;;;;;;;2.35;1.33;;;;;;;;;;5102212;27;21982;-66
2023/07/19 09:42:51;;;;;;;3.53;1.67;;;;;;;;;;5103358;28;20052;-63
2023/07/19 09:45:18;;;;;;;2.90;1.48;;;;;;;;;;5082787;27;20052;-64
2023/07/19 09:47:47;;;;;;;5.80;1.73;;;;;;;;;;5085910;27;20125;-67
2023/07/19 09:50:14;;;;;;;3.83;1.77;;;;;;;;;;5068422;28;20338;-66
2023/07/19 09:52:41;;;;;;;3.92;1.30;;;;;;;;;;5102821;27;20126;-65
2023/07/19 09:55:07;;;;;;;2.33;1.45;;;;;;;;;;5103635;27;20567;-63
2023/07/19 09:57:36;;;;;;;3.50;1.50;;;;;;;;;;5103689;27;20147;-64
2023/07/19 10:00:05;;;;;;;4.47;1.83;;;;;;;;;;5098996;27;20059;-63
2023/07/19 10:02:31;;;;;;;4.80;1.48;;;;;;;;;;5102566;27;20052;-66
2023/07/19 10:05:04;;;;;;;3.17;1.60;;;;;;;;;;5103538;27;20605;-67
2023/07/19 10:07:31;;;;;;;3.70;1.63;;;;;;;;;;5102740;27;20468;-62
2023/07/19 10:10:16;;;;;;;4.13;1.90;;;;;;;;;;5089839;27;20059;-64
2023/07/19 10:12:48;;;;;;;3.45;1.30;;;;;;;;;;5102872;27;20051;-66
2023/07/19 10:15:18;;;;;;;1.77;1.30;;;;;;;;;;5119778;27;20060;-66
2023/07/19 10:17:56;;;;;;;6.68;1.95;;;;;;;;;;5096857;27;20048;-66
2023/07/19 10:20:26;;;;;;;2.30;1.15;;;;;;;;;;5092732;27;20055;-65
2023/07/19 10:22:53;;;;;;;5.82;2.53;;;;;;;;;;5098096;28;20060;-66
2023/07/19 10:25:30;;;;;;;3.33;1.63;;;;;;;;;;5091015;27;20702;-66
2023/07/19 10:28:04;;;;;;;6.32;1.98;;;;;;;;;;5084127;27;20135;-65
2023/07/19 10:30:45;;;;;;;7.30;2.53;;;;;;;;;;5082233;27;20769;-66
2023/07/19 10:33:12;;;;;;;5.32;1.90;;;;;;;;;;5082570;27;20056;-66
2023/07/19 10:35:39;;;;;;;6.50;1.90;;;;;;;;;;5085565;27;20056;-64
2023/07/19 10:38:15;;;;;;;2.97;1.70;;;;;;;;;;5082729;27;20691;-65
2023/07/19 10:41:01;;;;;;;5.28;1.90;;;;;;;;;;5100624;27;20055;-64
2023/07/19 10:43:27;;;;;;;;;;;;;;;;;;5088536;27;20049;-64
2023/07/19 10:46:12;;;;;;;4.80;1.88;;;;;;;;;;5086797;28;44273;-66
2023/07/19 10:48:39;;;;;;;3.97;2.00;;;;;;;;;;5111157;27;20476;-60
2023/07/19 10:51:08;;;;;;;2.25;1.60;;;;;;;;;;5115537;27;20064;-64
2023/07/19 10:53:45;;;;;;;6.00;2.58;;;;;;;;;;5102487;27;20044;-65
2023/07/19 10:56:13;;;;;;;7.28;2.50;;;;;;;;;;5097479;28;20615;-64
2023/07/19 10:58:40;;;;;;;3.35;2.55;;;;;;;;;;5102398;27;20059;-68
2023/07/19 11:01:07;;;;;;;3.05;2.20;;;;;;;;;;5103341;27;20237;-68
2023/07/19 11:03:33;;;;;;;6.07;2.28;;;;;;;;;;5102391;28;20133;-59
2023/07/19 11:06:00;;;;;;;3.60;2.13;;;;;;;;;;5098111;27;20048;-67
2023/07/19 11:08:28;;;;;;;4.90;1.88;;;;;;;;;;5089384;27;20076;-67
2023/07/19 11:10:55;;;;;;;9.38;3.67;;;;;;;;;;5093579;27;20056;-69
2023/07/19 11:13:23;;;;;;;2.47;1.80;;;;;;;;;;5097535;27;20059;-69
2023/07/19 11:15:53;;;;;;;5.25;2.30;;;;;;;;;;5095979;27;20167;-69
2023/07/19 11:18:27;;;;;;;2.72;1.90;;;;;;;;;;5099886;27;20048;-69
2023/07/19 11:20:54;;;;;;;5.75;2.65;;;;;;;;;;5098409;27;20056;-70
2023/07/19 11:23:20;;;;;;;4.72;2.28;;;;;;;;;;5104472;28;20481;-67
2023/07/19 11:25:47;;;;;;;5.20;2.05;;;;;;;;;;5092129;27;20055;-67
2023/07/19 11:28:14;;;;;;;5.10;2.70;;;;;;;;;;5101712;27;20052;-60
2023/07/19 11:30:40;;;;;;;6.78;2.78;;;;;;;;;;5105128;28;20087;-65
2023/07/19 11:33:09;;;;;;;2.47;2.28;;;;;;;;;;5105327;27;20081;-68
2023/07/19 11:35:36;;;;;;;7.40;2.40;;;;;;;;;;5104997;27;20151;-65
2023/07/19 11:38:02;;;;;;;3.42;3.05;;;;;;;;;;5098337;27;20175;-64
2023/07/19 11:40:29;;;;;;;4.97;2.65;;;;;;;;;;5105321;28;20063;-67
2023/07/19 11:42:57;;;;;;;4.50;2.17;;;;;;;;;;5103283;27;20052;-68
2023/07/19 11:45:25;;;;;;;4.20;2.10;;;;;;;;;;5099348;27;20048;-67
2023/07/19 11:47:54;;;;;;;4.90;2.60;;;;;;;;;;5099660;27;20193;-67
2023/07/19 11:50:23;;;;;;;3.88;1.92;;;;;;;;;;5104443;27;20110;-69
2023/07/19 11:52:54;;;;;;;7.10;2.88;;;;;;;;;;5093916;27;20093;-70
2023/07/19 11:55:20;;;;;;;3.90;1.90;;;;;;;;;;5102084;27;20058;-68
2023/07/19 11:57:48;;;;;;;3.45;1.63;;;;;;;;;;5100250;28;20052;-69
2023/07/19 12:00:16;;;;;;;6.32;2.17;;;;;;;;;;5097964;27;20048;-70
2023/07/19 12:02:46;;;;;;;6.75;2.45;;;;;;;;;;5103580;27;20139;-68
2023/07/19 12:05:14;;;;;;;5.53;2.50;;;;;;;;;;5099289;27;20083;-68
2023/07/19 12:07:41;;;;;;;6.82;2.55;;;;;;;;;;5099127;27;20121;-69
2023/07/19 12:10:08;;;;;;;4.60;2.45;;;;;;;;;;5096916;27;20125;-71
2023/07/19 12:12:35;;;;;;;6.22;1.88;;;;;;;;;;5103786;28;20418;-68
2023/07/19 12:15:04;;;;;;;4.47;2.20;;;;;;;;;;5101960;27;20105;-69
2023/07/19 12:17:34;;;;;;;5.70;1.77;;;;;;;;;;5100793;27;20526;-67
2023/07/19 12:20:00;;;;;;;4.07;1.67;;;;;;;;;;5097031;27;20063;-62
2023/07/19 12:22:27;;;;;;;4.05;2.05;;;;;;;;;;5103119;27;20121;-69
2023/07/19 12:24:54;;;;;;;8.27;2.10;;;;;;;;;;5102676;27;20048;-67
2023/07/19 12:27:21;;;;;;;4.40;1.83;;;;;;;;;;5101444;27;20131;-69
2023/07/19 12:29:47;;;;;;;6.30;1.92;;;;;;;;;;5103315;27;20102;-67
2023/07/19 12:32:26;;;;;;;4.72;1.80;;;;;;;;;;5099430;27;20144;-68
2023/07/19 12:34:54;;;;;;;6.82;2.05;;;;;;;;;;5102834;27;20059;-68
2023/07/19 12:37:20;;;;;;;1.60;1.30;;;;;;;;;;5096847;27;20573;-66
2023/07/19 12:39:47;;;;;;;3.25;1.50;;;;;;;;;;5102107;27;20052;-68
2023/07/19 12:42:13;;;;;;;4.80;1.85;;;;;;;;;;5102843;27;20197;-66
2023/07/19 12:44:41;;;;;;;4.00;1.50;;;;;;;;;;5075134;27;20519;-67
2023/07/19 12:47:08;;;;;;;3.25;1.63;;;;;;;;;;5102241;28;20110;-62
2023/07/19 12:49:34;;;;;;;3.63;1.58;;;;;;;;;;5097329;27;20138;-67
2023/07/19 12:52:01;;;;;;;3.63;1.70;;;;;;;;;;5092751;27;20530;-67
2023/07/19 12:54:28;;;;;;;3.50;1.23;;;;;;;;;;5102693;27;20564;-69
2023/07/19 12:56:54;;;;;;;4.93;1.23;;;;;;;;;;5102334;27;20135;-61
2023/07/19 12:59:21;;;;;;;5.00;1.65;;;;;;;;;;5099300;27;20461;-69
2023/07/19 13:01:49;;;;;;;1.75;1.45;;;;;;;;;;5097414;27;20553;-70
2023/07/19 13:04:15;;;;;;;1.90;1.45;;;;;;;;;;5103379;28;20084;-70
2023/07/19 13:06:42;;;;;;;2.28;1.35;;;;;;;;;;5103027;28;20059;-71
2023/07/19 13:09:08;;;;;;;3.63;1.73;;;;;;;;;;5101103;27;20080;-64
2023/07/19 13:11:36;;;;;;;1.52;1.23;;;;;;;;;;5102050;27;20106;-71
2023/07/19 13:14:03;;;;;;;1.38;1.25;;;;;;;;;;5103024;27;20056;-69
2023/07/19 13:16:31;;;;;;;3.13;1.08;;;;;;;;;;5094154;28;20063;-72
2023/07/19 13:18:58;;;;;;;4.75;1.33;;;;;;;;;;5099847;27;20048;-62
2023/07/19 13:21:25;;;;;;;1.48;1.13;;;;;;;;;;5101919;28;20151;-68
2023/07/19 13:23:51;;;;;;;3.15;0.95;;;;;;;;;;5102005;28;20063;-69
2023/07/19 13:26:19;;;;;;;4.53;1.38;;;;;;;;;;5097719;27;20140;-69
2023/07/19 13:28:48;;;;;;;1.88;1.33;;;;;;;;;;5096948;27;20211;-69
2023/07/19 13:31:16;;;;;;;3.05;1.50;;;;;;;;;;5100432;27;20048;-60
2023/07/19 13:33:42;;;;;;;2.10;1.75;;;;;;;;;;5100867;27;20056;-63
2023/07/19 13:36:09;;;;;;;5.20;1.88;;;;;;;;;;5098350;27;20052;-67
2023/07/19 13:38:38;;;;;;;3.22;1.38;;;;;;;;;;5090087;27;20082;-70
2023/07/19 13:41:08;;;;;;;7.75;2.13;;;;;;;;;;5110738;27;20446;-69
2023/07/19 13:43:34;;;;;;;3.47;1.33;;;;;;;;;;5098593;27;20577;-63
2023/07/19 13:46:02;;;;;;;2.90;1.80;;;;;;;;;;5100532;27;20048;-64
2023/07/19 13:48:29;;;;;;;4.18;1.60;;;;;;;;;;5102114;28;20607;-69
2023/07/19 13:50:57;;;;;;;2.33;1.00;;;;;;;;;;5098611;27;20052;-71
2023/07/19 13:53:23;;;;;;;3.90;1.42;;;;;;;;;;5099874;27;20052;-66
2023/07/19 13:55:50;;;;;;;3.60;1.40;;;;;;;;;;5096173;27;20589;-69
2023/07/19 13:58:16;;;;;;;2.95;1.08;;;;;;;;;;5101638;27;20102;-63
2023/07/19 14:00:42;;;;;;;2.30;1.10;;;;;;;;;;5097580;27;20059;-70
2023/07/19 14:03:09;;;;;;;3.83;2.38;;;;;;;;;;5089402;27;20060;-68
2023/07/19 14:05:36;;;;;;;3.97;1.30;;;;;;;;;;5091769;27;20084;-69
2023/07/19 14:08:03;;;;;;;2.60;1.02;;;;;;;;;;5087904;27;20090;-63
2023/07/19 14:10:31;;;;;;;6.43;1.52;;;;;;;;;;5093232;27;20058;-69
2023/07/19 14:12:59;;;;;;;3.97;1.00;;;;;;;;;;5092787;27;20091;-69
2023/07/19 14:15:26;;;;;;;4.00;1.00;;;;;;;;;;5082605;28;20109;-71
2023/07/19 14:17:52;;;;;;;6.07;0.95;;;;;;;;;;5099734;27;20313;-59
2023/07/19 14:20:19;;;;;;;1.27;0.80;;;;;;;;;;5101125;28;20085;-69
2023/07/19 14:22:45;;;;;;;2.33;0.95;;;;;;;;;;5099814;27;20052;-69
2023/07/19 14:25:12;;;;;;;3.05;1.08;;;;;;;;;;5099961;27;20518;-66
2023/07/19 14:27:40;;;;;;;4.90;1.08;;;;;;;;;;5101228;27;20085;-65
2023/07/19 14:30:07;;;;;;;1.67;1.13;;;;;;;;;;5102727;28;20054;-64
2023/07/19 14:32:35;;;;;;;1.55;0.70;;;;;;;;;;5096798;28;20154;-68
2023/07/19 14:35:02;;;;;;;4.85;1.10;;;;;;;;;;5099091;27;20082;-67
2023/07/19 14:37:29;;;;;;;2.58;1.30;;;;;;;;;;5095947;27;20052;-70
2023/07/19 14:39:55;;;;;;;1.88;1.00;;;;;;;;;;5100547;27;20518;-66
2023/07/19 14:42:22;;;;;;;2.20;0.93;;;;;;;;;;5096290;27;20052;-69
2023/07/19 14:44:48;;;;;;;1.10;1.02;;;;;;;;;;5097016;27;20551;-68